Time;durP1;ratioP1;P1;durP2;ratioP2;P2;SDS_P1;SDS_P2;PMS_P1;PMS_P2;Temp;Humidity;BMP_temperature;BMP_pressure;BME280_temperature;BME280_humidity;BME280_pressure;Samples;Min_cycle;Max_cycle;Signal;HPM_P1;HPM_P2
2024/01/21 00:01:31;;;;;;;;;;;-7.30;59.50;;;;;;5033381;28;20277;-71
2024/01/21 00:03:59;;;;;;;;;;;-7.40;59.10;;;;;;5048904;28;19925;-70
2024/01/21 00:06:24;;;;;;;;;;;-7.40;59.00;;;;;;5049748;28;19912;-70
2024/01/21 00:08:50;;;;;;;;;;;-7.50;58.70;;;;;;5049589;28;19971;-70
2024/01/21 00:11:16;;;;;;;;;;;-7.40;58.70;;;;;;5032166;28;19921;-70
2024/01/21 00:13:42;;;;;;;;;;;-7.40;58.80;;;;;;5034398;28;20016;-70
2024/01/21 00:16:08;;;;;;;;;;;-7.50;58.70;;;;;;5032433;28;19920;-70
2024/01/21 00:18:34;;;;;;;;;;;-7.40;59.30;;;;;;5032108;28;20397;-71
2024/01/21 00:21:00;;;;;;;;;;;-7.40;59.40;;;;;;5031565;28;19956;-71
2024/01/21 00:23:26;;;;;;;;;;;-7.40;59.50;;;;;;5055884;28;20026;-70
2024/01/21 00:25:52;;;;;;;;;;;-7.50;59.70;;;;;;5052003;28;20508;-71
2024/01/21 00:28:18;;;;;;;;;;;-7.50;59.40;;;;;;5051983;28;19972;-71
2024/01/21 00:30:44;;;;;;;;;;;-7.40;60.40;;;;;;5051438;28;19916;-71
2024/01/21 00:33:10;;;;;;;;;;;-7.40;60.40;;;;;;5052216;28;19921;-71
2024/01/21 00:35:35;;;;;;;;;;;-7.40;60.20;;;;;;5052801;28;19917;-71
2024/01/21 00:38:02;;;;;;;;;;;-7.40;60.10;;;;;;5041557;28;19986;-71
2024/01/21 00:40:28;;;;;;;;;;;-7.50;59.80;;;;;;5048749;28;20024;-70
2024/01/21 00:42:58;;;;;;;;;;;-7.50;59.20;;;;;;5049255;28;19929;-71
2024/01/21 00:45:25;;;;;;;;;;;-7.50;58.70;;;;;;5033610;28;19917;-70
2024/01/21 00:47:51;;;;;;;;;;;-7.50;58.00;;;;;;5049194;28;19943;-70
2024/01/21 00:50:17;;;;;;;;;;;-7.60;57.00;;;;;;5051146;28;19916;-71
2024/01/21 00:52:43;;;;;;;;;;;-7.60;56.40;;;;;;5035666;28;20379;-71
2024/01/21 00:55:09;;;;;;;;;;;-7.70;56.10;;;;;;5040319;28;19952;-70
2024/01/21 00:57:34;;;;;;;;;;;-7.70;56.50;;;;;;5051590;28;19912;-71
2024/01/21 01:00:00;;;;;;;;;;;-7.90;56.70;;;;;;5052141;28;19916;-70
2024/01/21 01:02:26;;;;;;;;;;;-7.90;57.30;;;;;;5051632;28;20007;-71
2024/01/21 01:04:52;;;;;;;;;;;-8.00;57.90;;;;;;5052208;28;19947;-71
2024/01/21 01:07:18;;;;;;;;;;;-8.00;58.30;;;;;;5053291;28;20003;-70
2024/01/21 01:09:44;;;;;;;;;;;-7.90;58.30;;;;;;5052044;28;19956;-71
2024/01/21 01:12:10;;;;;;;;;;;-8.00;58.40;;;;;;5034722;28;19921;-71
2024/01/21 01:14:40;;;;;;;;;;;-8.00;58.00;;;;;;5068830;28;19920;-71
2024/01/21 01:17:06;;;;;;;;;;;-8.00;58.70;;;;;;5051835;28;20378;-71
2024/01/21 01:19:32;;;;;;;;;;;-8.10;58.40;;;;;;5053287;28;19917;-70
2024/01/21 01:21:58;;;;;;;;;;;-8.10;58.20;;;;;;5052595;28;20368;-70
2024/01/21 01:24:24;;;;;;;;;;;-8.00;58.30;;;;;;5053252;28;19967;-71
2024/01/21 01:26:50;;;;;;;;;;;-8.00;58.50;;;;;;5051661;28;19916;-71
2024/01/21 01:29:16;;;;;;;;;;;-7.90;58.60;;;;;;5038281;28;19917;-71
2024/01/21 01:31:42;;;;;;;;;;;-8.00;58.40;;;;;;5045667;28;19928;-71
2024/01/21 01:34:10;;;;;;;;;;;-8.00;58.20;;;;;;5052774;28;20427;-71
2024/01/21 01:36:36;;;;;;;;;;;-8.00;57.30;;;;;;5051113;28;19916;-71
2024/01/21 01:39:02;;;;;;;;;;;-8.00;57.40;;;;;;5067908;28;19916;-70
2024/01/21 01:41:28;;;;;;;;;;;-8.10;58.10;;;;;;5050773;28;19924;-70
2024/01/21 01:43:54;;;;;;;;;;;-8.10;57.80;;;;;;5068537;28;20015;-71
2024/01/21 01:46:20;;;;;;;;;;;-8.10;57.80;;;;;;5051537;28;20275;-70
2024/01/21 01:48:46;;;;;;;;;;;-8.20;57.80;;;;;;5067524;28;19917;-70
2024/01/21 01:51:12;;;;;;;;;;;-8.30;58.00;;;;;;5052015;28;20336;-71
2024/01/21 01:53:38;;;;;;;;;;;-8.40;58.00;;;;;;5052438;28;20460;-70
2024/01/21 01:56:05;;;;;;;;;;;-8.50;58.00;;;;;;5067763;28;20011;-70
2024/01/21 01:58:32;;;;;;;;;;;-8.60;57.40;;;;;;5051336;28;19947;-70
2024/01/21 02:00:57;;;;;;;;;;;-8.60;57.70;;;;;;5067006;28;19921;-71
2024/01/21 02:03:24;;;;;;;;;;;-8.60;57.50;;;;;;5050892;28;19921;-71
2024/01/21 02:05:50;;;;;;;;;;;-8.60;57.20;;;;;;5067956;28;19920;-70
2024/01/21 02:08:16;;;;;;;;;;;-8.70;57.00;;;;;;5051984;28;19917;-71
2024/01/21 02:10:42;;;;;;;;;;;-8.70;56.70;;;;;;5049912;28;20456;-71
2024/01/21 02:13:08;;;;;;;;;;;-8.80;56.30;;;;;;5052185;28;19916;-70
2024/01/21 02:15:34;;;;;;;;;;;-8.80;56.50;;;;;;5051762;28;20000;-70
2024/01/21 02:17:59;;;;;;;;;;;-8.80;56.50;;;;;;5051721;28;19923;-71
2024/01/21 02:20:25;;;;;;;;;;;-8.90;56.70;;;;;;5050258;28;19925;-71
2024/01/21 02:23:14;;;;;;;;;;;-9.00;56.20;;;;;;5050925;28;19923;-70
2024/01/21 02:25:40;;;;;;;;;;;-9.00;56.40;;;;;;5052026;28;19962;-71
2024/01/21 02:28:06;;;;;;;;;;;-9.00;57.00;;;;;;5051992;28;20331;-70
2024/01/21 02:30:32;;;;;;;;;;;-8.90;57.20;;;;;;5051000;28;19920;-71
2024/01/21 02:32:58;;;;;;;;;;;-8.90;57.30;;;;;;5066888;28;19923;-70
2024/01/21 02:35:24;;;;;;;;;;;-8.90;57.30;;;;;;5049909;28;19920;-70
2024/01/21 02:37:50;;;;;;;;;;;-8.80;57.20;;;;;;5066830;28;19925;-71
2024/01/21 02:40:15;;;;;;;;;;;-8.80;57.00;;;;;;5066213;28;20011;-71
2024/01/21 02:42:41;;;;;;;;;;;-8.90;56.90;;;;;;5067726;28;20015;-70
2024/01/21 02:45:08;;;;;;;;;;;-8.80;56.70;;;;;;5052005;28;19924;-71
2024/01/21 02:47:34;;;;;;;;;;;-8.70;56.10;;;;;;5052057;28;19958;-71
2024/01/21 02:49:59;;;;;;;;;;;-8.80;56.70;;;;;;5067246;28;20355;-70
2024/01/21 02:52:25;;;;;;;;;;;-8.70;56.70;;;;;;5051366;28;20350;-71
2024/01/21 02:54:51;;;;;;;;;;;-8.70;56.60;;;;;;5051933;28;20401;-71
2024/01/21 02:57:17;;;;;;;;;;;-8.70;56.10;;;;;;5050017;28;19943;-70
2024/01/21 02:59:43;;;;;;;;;;;-8.80;55.80;;;;;;5051195;28;19975;-71
2024/01/21 03:02:09;;;;;;;;;;;-8.70;56.10;;;;;;5050826;28;19923;-70
2024/01/21 03:04:35;;;;;;;;;;;-8.80;56.10;;;;;;5051721;28;19920;-71
2024/01/21 03:07:00;;;;;;;;;;;-8.70;56.40;;;;;;5051921;28;20381;-70
2024/01/21 03:09:26;;;;;;;;;;;-8.80;56.30;;;;;;5050169;28;20472;-70
2024/01/21 03:11:54;;;;;;;;;;;-8.80;56.40;;;;;;5049869;28;20288;-70
2024/01/21 03:14:20;;;;;;;;;;;-8.80;56.40;;;;;;5051602;28;19921;-70
2024/01/21 03:16:46;;;;;;;;;;;-8.70;56.50;;;;;;5067044;28;20396;-70
2024/01/21 03:19:12;;;;;;;;;;;-8.70;56.60;;;;;;5051447;28;19944;-71
2024/01/21 03:21:38;;;;;;;;;;;-8.60;56.80;;;;;;5065732;28;19927;-71
2024/01/21 03:24:04;;;;;;;;;;;-8.60;56.70;;;;;;5049687;28;19939;-71
2024/01/21 03:26:30;;;;;;;;;;;-8.60;56.50;;;;;;5051231;28;19928;-70
2024/01/21 03:28:57;;;;;;;;;;;-8.60;56.40;;;;;;5051094;28;20007;-71
2024/01/21 03:31:22;;;;;;;;;;;-8.60;56.90;;;;;;5069683;28;19966;-70
2024/01/21 03:33:48;;;;;;;;;;;-8.60;56.70;;;;;;5054032;28;19924;-71
2024/01/21 03:36:14;;;;;;;;;;;-8.60;57.20;;;;;;5070417;28;20003;-70
2024/01/21 03:38:40;;;;;;;;;;;-8.50;57.50;;;;;;5053045;28;20007;-70
2024/01/21 03:41:06;;;;;;;;;;;-8.50;57.60;;;;;;5054048;28;20293;-71
2024/01/21 03:43:32;;;;;;;;;;;-8.50;58.10;;;;;;5054377;28;19917;-70
2024/01/21 03:45:58;;;;;;;;;;;-8.40;58.40;;;;;;5054863;28;19959;-70
2024/01/21 03:48:23;;;;;;;;;;;-8.40;58.70;;;;;;5069618;28;19927;-71
2024/01/21 03:50:49;;;;;;;;;;;-8.30;58.90;;;;;;5053662;28;19955;-71
2024/01/21 03:53:15;;;;;;;;;;;-8.30;59.20;;;;;;5053899;28;20012;-70
2024/01/21 03:55:41;;;;;;;;;;;-8.30;59.90;;;;;;5052770;28;20380;-70
2024/01/21 03:58:07;;;;;;;;;;;-8.30;60.00;;;;;;5053969;28;19923;-70
2024/01/21 04:00:33;;;;;;;;;;;-8.20;59.90;;;;;;5046267;28;19921;-71
2024/01/21 04:02:59;;;;;;;;;;;-8.20;59.90;;;;;;5053969;28;19952;-71
2024/01/21 04:05:25;;;;;;;;;;;-8.20;60.10;;;;;;5069093;28;19952;-71
2024/01/21 04:07:50;;;;;;;;;;;-8.20;60.20;;;;;;5052545;28;19944;-71
2024/01/21 04:10:16;;;;;;;;;;;-8.30;60.20;;;;;;5051951;28;20388;-71
2024/01/21 04:12:42;;;;;;;;;;;-8.40;59.70;;;;;;5069474;28;20348;-71
2024/01/21 04:15:08;;;;;;;;;;;-8.50;60.50;;;;;;5052224;28;20325;-70
2024/01/21 04:17:34;;;;;;;;;;;-8.60;59.60;;;;;;5052391;28;19916;-70
2024/01/21 04:20:00;;;;;;;;;;;-8.60;59.60;;;;;;5052287;28;20344;-70
2024/01/21 04:22:26;;;;;;;;;;;-8.60;59.50;;;;;;5051453;28;20015;-71
2024/01/21 04:24:51;;;;;;;;;;;-8.60;59.40;;;;;;5052411;28;19921;-70
2024/01/21 04:27:17;;;;;;;;;;;-8.60;59.40;;;;;;5052112;28;20011;-70
2024/01/21 04:29:43;;;;;;;;;;;-8.60;59.70;;;;;;5052245;28;20448;-71
2024/01/21 04:32:09;;;;;;;;;;;-8.60;60.50;;;;;;5053036;28;20011;-71
2024/01/21 04:34:35;;;;;;;;;;;-8.60;61.00;;;;;;5053384;28;19917;-70
2024/01/21 04:37:01;;;;;;;;;;;-8.60;61.80;;;;;;5053547;28;19942;-71
2024/01/21 04:39:27;;;;;;;;;;;-8.50;61.90;;;;;;5053185;28;19921;-71
2024/01/21 04:41:53;;;;;;;;;;;-8.50;62.20;;;;;;5052951;28;19925;-70
2024/01/21 04:44:19;;;;;;;;;;;-8.50;62.20;;;;;;5051795;28;19916;-71
2024/01/21 04:46:45;;;;;;;;;;;-8.50;62.60;;;;;;5052177;28;19916;-71
2024/01/21 04:49:11;;;;;;;;;;;-8.50;63.50;;;;;;5053310;28;19916;-71
2024/01/21 04:51:40;;;;;;;;;;;-8.50;63.40;;;;;;5067625;28;20027;-70
2024/01/21 04:54:06;;;;;;;;;;;-8.50;63.50;;;;;;5035542;28;19924;-70
2024/01/21 04:56:33;;;;;;;;;;;-8.40;63.50;;;;;;5053111;28;19986;-71
2024/01/21 04:58:59;;;;;;;;;;;-8.50;63.60;;;;;;5053503;28;19917;-71
2024/01/21 05:01:25;;;;;;;;;;;-8.50;63.30;;;;;;5052532;28;20342;-71
2024/01/21 05:03:51;;;;;;;;;;;-8.50;63.90;;;;;;5053461;28;19979;-71
2024/01/21 05:06:18;;;;;;;;;;;-8.50;64.20;;;;;;5052768;28;20015;-70
2024/01/21 05:08:43;;;;;;;;;;;-8.60;64.10;;;;;;5051325;28;19980;-70
2024/01/21 05:11:09;;;;;;;;;;;-8.60;64.20;;;;;;5067184;28;19948;-70
2024/01/21 05:13:35;;;;;;;;;;;-8.60;63.80;;;;;;5067555;28;19916;-71
2024/01/21 05:16:01;;;;;;;;;;;-8.60;63.30;;;;;;5051220;28;19985;-71
2024/01/21 05:18:27;;;;;;;;;;;-8.60;62.70;;;;;;5052483;28;20374;-71
2024/01/21 05:20:53;;;;;;;;;;;-8.70;62.50;;;;;;5067124;28;20351;-70
2024/01/21 05:23:19;;;;;;;;;;;-8.70;62.50;;;;;;5052334;28;20003;-70
2024/01/21 05:25:50;;;;;;;;;;;-8.70;62.00;;;;;;5052125;28;20382;-70
2024/01/21 05:28:16;;;;;;;;;;;-8.70;61.50;;;;;;5052271;28;19924;-71
2024/01/21 05:30:42;;;;;;;;;;;-8.70;61.10;;;;;;5067124;28;19982;-71
2024/01/21 05:33:08;;;;;;;;;;;-8.70;61.40;;;;;;5067211;28;20323;-70
2024/01/21 05:35:34;;;;;;;;;;;-8.80;61.00;;;;;;5052681;28;20515;-71
2024/01/21 05:37:59;;;;;;;;;;;-8.70;61.10;;;;;;5052087;28;20028;-71
2024/01/21 05:40:26;;;;;;;;;;;-8.80;61.00;;;;;;5067040;28;20003;-70
2024/01/21 05:42:52;;;;;;;;;;;-8.70;61.60;;;;;;5067996;28;19978;-71
2024/01/21 05:45:18;;;;;;;;;;;-8.80;60.30;;;;;;5050593;28;19921;-70
2024/01/21 05:47:44;;;;;;;;;;;-8.80;60.40;;;;;;5050705;28;19916;-70
2024/01/21 05:50:10;;;;;;;;;;;-8.80;60.50;;;;;;5049890;28;19923;-71
2024/01/21 05:52:36;;;;;;;;;;;-8.80;61.40;;;;;;5066320;28;20393;-71
2024/01/21 05:55:15;;;;;;;;;;;-8.80;60.50;;;;;;5051737;28;20155;-71
2024/01/21 05:57:41;;;;;;;;;;;-8.70;60.50;;;;;;5051798;28;19921;-70
2024/01/21 06:00:08;;;;;;;;;;;-8.70;60.60;;;;;;5066283;28;19916;-71
2024/01/21 06:02:33;;;;;;;;;;;-8.70;60.30;;;;;;5067139;28;20306;-70
2024/01/21 06:04:59;;;;;;;;;;;-8.70;60.40;;;;;;5051544;28;19913;-70
2024/01/21 06:07:25;;;;;;;;;;;-8.70;60.60;;;;;;5051667;28;19913;-71
2024/01/21 06:09:51;;;;;;;;;;;-8.70;60.30;;;;;;5052070;28;19991;-71
2024/01/21 06:12:17;;;;;;;;;;;-8.70;59.90;;;;;;5049545;28;20301;-70
2024/01/21 06:14:45;;;;;;;;;;;-8.70;59.80;;;;;;5050566;28;20011;-71
2024/01/21 06:17:11;;;;;;;;;;;-8.70;59.90;;;;;;5050149;28;20309;-71
2024/01/21 06:19:37;;;;;;;;;;;-8.80;59.70;;;;;;5050424;28;20023;-71
2024/01/21 06:22:03;;;;;;;;;;;-8.80;59.60;;;;;;5049619;28;19938;-70
2024/01/21 06:24:29;;;;;;;;;;;-8.80;59.90;;;;;;5051791;28;20356;-70
2024/01/21 06:26:54;;;;;;;;;;;-8.80;59.90;;;;;;5051454;28;19927;-70
2024/01/21 06:29:20;;;;;;;;;;;-8.80;60.20;;;;;;5051539;28;20012;-71
2024/01/21 06:31:46;;;;;;;;;;;-8.90;60.30;;;;;;5051151;28;20429;-71
2024/01/21 06:34:12;;;;;;;;;;;-8.90;60.20;;;;;;5051462;28;20011;-71
2024/01/21 06:36:38;;;;;;;;;;;-8.80;59.90;;;;;;5050063;28;20003;-71
2024/01/21 06:39:04;;;;;;;;;;;-8.80;59.70;;;;;;5051540;28;20007;-71
2024/01/21 06:41:30;;;;;;;;;;;-8.80;59.70;;;;;;5049222;28;20007;-71
2024/01/21 06:43:56;;;;;;;;;;;-8.70;59.70;;;;;;5050001;28;19943;-71
2024/01/21 06:46:21;;;;;;;;;;;-8.70;59.90;;;;;;5050206;28;19927;-71
2024/01/21 06:48:47;;;;;;;;;;;-8.70;59.90;;;;;;5051351;28;20023;-70
2024/01/21 06:51:30;;;;;;;;;;;-8.70;60.10;;;;;;5049179;28;19917;-70
2024/01/21 06:53:55;;;;;;;;;;;-8.70;59.50;;;;;;5064635;28;19979;-70
2024/01/21 06:56:21;;;;;;;;;;;-8.70;60.00;;;;;;5066464;28;19925;-70
2024/01/21 06:58:47;;;;;;;;;;;-8.70;59.80;;;;;;5051379;28;20003;-70
2024/01/21 07:01:13;;;;;;;;;;;-8.60;59.60;;;;;;5050440;28;19959;-70
2024/01/21 07:03:39;;;;;;;;;;;-8.60;59.20;;;;;;5053170;28;20019;-70
2024/01/21 07:06:05;;;;;;;;;;;-8.70;59.10;;;;;;5054743;28;20319;-71
2024/01/21 07:08:31;;;;;;;;;;;-8.70;59.00;;;;;;5055015;28;19944;-70
2024/01/21 07:10:57;;;;;;;;;;;-8.60;59.00;;;;;;5053023;28;20490;-70
2024/01/21 07:13:23;;;;;;;;;;;-8.60;59.40;;;;;;5054827;28;20492;-71
2024/01/21 07:15:49;;;;;;;;;;;-8.60;60.20;;;;;;5053552;28;20387;-71
2024/01/21 07:18:14;;;;;;;;;;;-8.50;60.70;;;;;;5054902;28;19959;-70
2024/01/21 07:20:40;;;;;;;;;;;-8.50;61.50;;;;;;5052950;28;20012;-71
2024/01/21 07:23:06;;;;;;;;;;;-8.50;61.50;;;;;;5053290;28;19923;-70
2024/01/21 07:25:32;;;;;;;;;;;-8.50;61.60;;;;;;5053420;28;19952;-71
2024/01/21 07:27:58;;;;;;;;;;;-8.50;62.10;;;;;;5054673;28;19993;-71
2024/01/21 07:30:24;;;;;;;;;;;-8.40;61.80;;;;;;5054326;28;19924;-71
2024/01/21 07:32:50;;;;;;;;;;;-8.30;61.30;;;;;;5054309;28;20007;-71
2024/01/21 07:35:16;;;;;;;;;;;-8.20;60.90;;;;;;5052881;28;20019;-70
2024/01/21 07:37:41;;;;;;;;;;;-8.10;60.70;;;;;;5053141;28;19932;-71
2024/01/21 07:40:08;;;;;;;;;;;-8.10;60.20;;;;;;5053713;28;19922;-70
2024/01/21 07:42:34;;;;;;;;;;;-8.00;59.60;;;;;;5054206;28;20252;-71
2024/01/21 07:45:00;;;;;;;;;;;-7.90;60.10;;;;;;5054219;28;20366;-71
2024/01/21 07:47:25;;;;;;;;;;;-7.80;59.70;;;;;;5052688;28;19974;-71
2024/01/21 07:49:51;;;;;;;;;;;-7.70;59.60;;;;;;5054396;28;20007;-70
2024/01/21 07:52:17;;;;;;;;;;;-7.50;59.50;;;;;;5053460;28;19927;-70
2024/01/21 07:54:44;;;;;;;;;;;-7.40;58.90;;;;;;5052763;28;20312;-71
2024/01/21 07:57:10;;;;;;;;;;;-7.40;58.90;;;;;;5054014;28;19924;-71
2024/01/21 07:59:35;;;;;;;;;;;-7.30;58.90;;;;;;5054039;28;19917;-71
2024/01/21 08:02:01;;;;;;;;;;;-7.20;59.40;;;;;;5052037;28;20008;-70
2024/01/21 08:04:27;;;;;;;;;;;-7.10;59.50;;;;;;5052484;28;19927;-71
2024/01/21 08:06:53;;;;;;;;;;;-6.90;59.00;;;;;;5053774;28;19916;-70
2024/01/21 08:09:19;;;;;;;;;;;-6.80;59.40;;;;;;5069069;28;20345;-71
2024/01/21 08:11:45;;;;;;;;;;;-6.60;58.80;;;;;;5053255;28;19951;-70
2024/01/21 08:14:11;;;;;;;;;;;-6.50;58.40;;;;;;5053307;28;20309;-71
2024/01/21 08:16:37;;;;;;;;;;;-6.40;57.60;;;;;;5068673;28;19948;-71
2024/01/21 08:19:06;;;;;;;;;;;-6.30;56.70;;;;;;5069138;28;19921;-70
2024/01/21 08:21:32;;;;;;;;;;;-6.30;56.80;;;;;;5052017;28;20020;-71
2024/01/21 08:23:58;;;;;;;;;;;-6.30;56.70;;;;;;5052323;28;20021;-70
2024/01/21 08:26:25;;;;;;;;;;;-6.50;56.10;;;;;;5053384;28;19963;-70
2024/01/21 08:28:50;;;;;;;;;;;-6.50;56.20;;;;;;5068812;28;19927;-71
2024/01/21 08:31:17;;;;;;;;;;;-6.50;56.60;;;;;;5051466;28;20000;-71
2024/01/21 08:33:43;;;;;;;;;;;-6.50;56.40;;;;;;5068418;28;19925;-70
2024/01/21 08:36:09;;;;;;;;;;;-6.30;55.90;;;;;;5068463;28;20004;-71
2024/01/21 08:38:35;;;;;;;;;;;-6.30;55.70;;;;;;5051813;28;20194;-71
2024/01/21 08:41:01;;;;;;;;;;;-6.20;55.10;;;;;;5051333;28;19924;-70
2024/01/21 08:43:27;;;;;;;;;;;-6.10;55.50;;;;;;5051715;28;20011;-71
2024/01/21 08:45:53;;;;;;;;;;;-6.10;55.20;;;;;;5051683;28;20352;-70
2024/01/21 08:48:19;;;;;;;;;;;-6.10;55.00;;;;;;5052979;28;20386;-71
2024/01/21 08:50:44;;;;;;;;;;;-6.10;55.00;;;;;;5067529;28;19999;-70
2024/01/21 08:53:10;;;;;;;;;;;-6.00;54.80;;;;;;5051356;28;20011;-70
2024/01/21 08:55:36;;;;;;;;;;;-6.00;55.00;;;;;;5052663;28;20007;-70
2024/01/21 08:58:02;;;;;;;;;;;-5.90;55.00;;;;;;5052792;28;20677;-71
2024/01/21 09:00:28;;;;;;;;;;;-5.90;55.10;;;;;;5050653;28;19924;-70
2024/01/21 09:02:54;;;;;;;;;;;-5.90;54.30;;;;;;5067950;28;19916;-70
2024/01/21 09:05:20;;;;;;;;;;;-5.70;55.00;;;;;;5052310;28;20285;-71
2024/01/21 09:07:46;;;;;;;;;;;-5.60;54.90;;;;;;5052675;28;19913;-70
2024/01/21 09:10:12;;;;;;;;;;;-5.50;55.00;;;;;;5051822;28;20043;-70
2024/01/21 09:12:39;;;;;;;;;;;-5.40;54.80;;;;;;5051528;28;19920;-70
2024/01/21 09:15:06;;;;;;;;;;;-5.30;54.20;;;;;;5050795;28;19916;-70
2024/01/21 09:17:32;;;;;;;;;;;-5.20;54.60;;;;;;5051156;28;19955;-71
2024/01/21 09:19:58;;;;;;;;;;;-4.60;54.10;;;;;;5067596;28;19942;-70
2024/01/21 09:22:24;;;;;;;;;;;-4.60;53.20;;;;;;5050456;28;20444;-70
2024/01/21 09:24:50;;;;;;;;;;;-4.70;53.50;;;;;;5051154;28;19917;-70
2024/01/21 09:27:16;;;;;;;;;;;-4.70;54.00;;;;;;5067554;28;20023;-71
2024/01/21 09:29:42;;;;;;;;;;;-4.70;54.30;;;;;;5051123;28;19927;-71
2024/01/21 09:32:10;;;;;;;;;;;-4.70;54.50;;;;;;5050296;28;19928;-70
2024/01/21 09:34:39;;;;;;;;;;;-4.60;54.50;;;;;;5050894;28;19964;-70
2024/01/21 09:37:06;;;;;;;;;;;-4.40;54.70;;;;;;5052133;28;19916;-70
2024/01/21 09:39:31;;;;;;;;;;;-4.30;54.80;;;;;;5050799;28;19921;-71
2024/01/21 09:41:58;;;;;;;;;;;-4.20;54.70;;;;;;5051435;28;19966;-70
2024/01/21 09:44:42;;;;;;;;;;;-4.10;54.70;;;;;;5067502;28;19917;-70
2024/01/21 09:47:10;;;;;;;;;;;-4.00;54.60;;;;;;5050706;28;20457;-70
2024/01/21 09:49:37;;;;;;;;;;;-3.90;55.10;;;;;;5051182;28;20384;-70
2024/01/21 09:52:04;;;;;;;;;;;-3.70;54.90;;;;;;5042032;28;20484;-70
2024/01/21 09:54:30;;;;;;;;;;;-3.50;54.80;;;;;;5057403;28;19928;-70
2024/01/21 09:56:56;;;;;;;;;;;-3.10;54.50;;;;;;5050538;28;19912;-70
2024/01/21 09:59:22;;;;;;;;;;;-2.00;52.80;;;;;;5035353;28;19929;-71
2024/01/21 10:01:48;;;;;;;;;;;-0.60;50.10;;;;;;5037652;28;19921;-70
2024/01/21 10:04:14;;;;;;;;;;;-0.50;48.80;;;;;;5050382;28;19921;-70
2024/01/21 10:06:41;;;;;;;;;;;-1.00;50.10;;;;;;5050343;28;19916;-71
2024/01/21 10:09:26;;;;;;;;;;;-1.30;52.10;;;;;;5047718;28;19917;-70
2024/01/21 10:12:03;;;;;;;;;;;-1.40;53.70;;;;;;5043720;28;19970;-71
2024/01/21 10:14:31;;;;;;;;;;;-1.20;53.40;;;;;;5046989;28;20367;-71
2024/01/21 10:16:58;;;;;;;;;;;-0.90;52.70;;;;;;5031654;28;19917;-71
2024/01/21 10:19:26;;;;;;;;;;;0.30;50.80;;;;;;5030491;28;19923;-71
2024/01/21 10:22:05;;;;;;;;;;;0.70;48.90;;;;;;5029854;28;19929;-70
2024/01/21 10:24:31;;;;;;;;;;;1.00;48.20;;;;;;5013924;28;20406;-71
2024/01/21 10:26:57;;;;;;;;;;;0.80;48.70;;;;;;5034096;28;20306;-71
2024/01/21 10:29:23;;;;;;;;;;;1.10;48.20;;;;;;5051745;28;19917;-71
2024/01/21 10:31:49;;;;;;;;;;;1.10;48.10;;;;;;5051092;28;19971;-71
2024/01/21 10:34:15;;;;;;;;;;;1.30;48.10;;;;;;5050930;28;19917;-70
2024/01/21 10:36:43;;;;;;;;;;;2.50;46.00;;;;;;5033494;28;19917;-71
2024/01/21 10:39:14;;;;;;;;;;;2.70;43.20;;;;;;5036034;28;19917;-70
2024/01/21 10:41:41;;;;;;;;;;;1.80;44.90;;;;;;5053585;28;20354;-70
2024/01/21 10:44:08;;;;;;;;;;;1.30;46.50;;;;;;5037181;28;20015;-71
2024/01/21 10:46:37;;;;;;;;;;;1.00;47.70;;;;;;5051244;28;19929;-71
2024/01/21 10:49:03;;;;;;;;;;;0.80;48.40;;;;;;5035665;28;19917;-70
2024/01/21 10:51:29;;;;;;;;;;;0.60;49.10;;;;;;5033397;28;20282;-70
2024/01/21 10:53:57;;;;;;;;;;;0.70;49.00;;;;;;5017317;28;19928;-71
2024/01/21 10:56:25;;;;;;;;;;;0.80;49.20;;;;;;5033905;28;20299;-71
2024/01/21 10:58:51;;;;;;;;;;;0.90;49.90;;;;;;5033935;28;19921;-71
2024/01/21 11:01:19;;;;;;;;;;;0.90;50.20;;;;;;5037075;28;20298;-71
2024/01/21 11:03:48;;;;;;;;;;;1.10;49.80;;;;;;5036987;28;19917;-70
2024/01/21 11:06:15;;;;;;;;;;;1.50;50.10;;;;;;5053475;28;19928;-70
2024/01/21 11:08:45;;;;;;;;;;;2.60;47.70;;;;;;5053581;28;20012;-70
2024/01/21 11:11:11;;;;;;;;;;;2.50;46.60;;;;;;5036843;28;19955;-70
2024/01/21 11:13:42;;;;;;;;;;;2.30;48.20;;;;;;5054924;28;20366;-70
2024/01/21 11:16:26;;;;;;;;;;;2.40;47.80;;;;;;5053489;28;19960;-70
2024/01/21 11:18:52;;;;;;;;;;;2.40;47.30;;;;;;5037943;28;20354;-71
2024/01/21 11:21:23;;;;;;;;;;;2.20;48.40;;;;;;5032784;28;19943;-71
2024/01/21 11:24:03;;;;;;;;;;;2.40;48.80;;;;;;5050190;28;20309;-70
2024/01/21 11:26:30;;;;;;;;;;;3.40;47.40;;;;;;5034623;28;19927;-70
2024/01/21 11:29:00;;;;;;;;;;;4.40;44.60;;;;;;5033541;28;20015;-70
2024/01/21 11:31:31;;;;;;;;;;;4.40;43.70;;;;;;5032547;28;19925;-70
2024/01/21 11:34:10;;;;;;;;;;;3.80;44.80;;;;;;5049628;28;19925;-71
2024/01/21 11:36:38;;;;;;;;;;;3.30;46.40;;;;;;5049825;28;19924;-71
2024/01/21 11:39:06;;;;;;;;;;;2.90;46.80;;;;;;5049800;28;20366;-70
2024/01/21 11:44:25;;;;;;;;;;;2.50;48.40;;;;;;5046716;28;19916;-71
2024/01/21 11:47:10;;;;;;;;;;;2.30;48.70;;;;;;5037800;28;19916;-70
2024/01/21 11:49:36;;;;;;;;;;;2.20;49.10;;;;;;5053193;28;20365;-70
2024/01/21 11:52:06;;;;;;;;;;;2.10;49.00;;;;;;5053245;28;19974;-70
2024/01/21 11:54:33;;;;;;;;;;;2.00;49.80;;;;;;5052855;28;19928;-71
2024/01/21 11:57:00;;;;;;;;;;;1.90;50.00;;;;;;5052691;28;19924;-70
2024/01/21 11:59:25;;;;;;;;;;;2.00;50.20;;;;;;5069241;28;19951;-70
2024/01/21 12:01:55;;;;;;;;;;;2.00;50.40;;;;;;5053135;28;19920;-70
2024/01/21 12:04:22;;;;;;;;;;;2.10;50.10;;;;;;5051810;28;19917;-70
2024/01/21 12:06:49;;;;;;;;;;;2.10;50.10;;;;;;5054262;28;20281;-70
2024/01/21 12:09:15;;;;;;;;;;;2.10;49.90;;;;;;5040428;28;19921;-71
2024/01/21 12:11:41;;;;;;;;;;;2.00;50.30;;;;;;5032938;28;19983;-70
2024/01/21 12:14:09;;;;;;;;;;;2.10;50.00;;;;;;5032495;28;19923;-71
2024/01/21 12:16:35;;;;;;;;;;;2.10;50.10;;;;;;5032473;28;19923;-70
2024/01/21 12:19:02;;;;;;;;;;;2.20;50.20;;;;;;5032633;28;19952;-70
2024/01/21 12:21:28;;;;;;;;;;;2.40;49.70;;;;;;5032939;28;19925;-70
2024/01/21 12:23:55;;;;;;;;;;;2.30;49.50;;;;;;5048668;28;20086;-70
2024/01/21 12:26:22;;;;;;;;;;;2.40;50.20;;;;;;5051878;28;20004;-70
2024/01/21 12:29:11;;;;;;;;;;;2.50;49.80;;;;;;5069045;28;19942;-70
2024/01/21 12:31:38;;;;;;;;;;;2.60;49.20;;;;;;5052827;28;19928;-70
2024/01/21 12:34:06;;;;;;;;;;;2.50;49.00;;;;;;5068641;28;20362;-70
2024/01/21 12:36:52;;;;;;;;;;;2.50;48.40;;;;;;5051911;28;19920;-70
2024/01/21 12:39:21;;;;;;;;;;;2.50;48.10;;;;;;5051810;28;19917;-70
2024/01/21 12:41:47;;;;;;;;;;;2.30;47.70;;;;;;5041591;28;19920;-70
2024/01/21 12:44:12;;;;;;;;;;;2.20;48.30;;;;;;5031516;28;20430;-70
2024/01/21 12:46:38;;;;;;;;;;;2.20;48.40;;;;;;5035844;28;20004;-70
2024/01/21 12:49:04;;;;;;;;;;;2.20;48.40;;;;;;5068309;28;19916;-70
2024/01/21 12:51:31;;;;;;;;;;;2.30;48.50;;;;;;5052477;28;19928;-70
2024/01/21 12:53:57;;;;;;;;;;;2.20;47.90;;;;;;5053158;28;19986;-70
2024/01/21 12:56:23;;;;;;;;;;;2.10;48.30;;;;;;5051356;28;20400;-70
2024/01/21 12:58:49;;;;;;;;;;;2.20;49.00;;;;;;5051520;28;19921;-70
2024/01/21 13:03:59;;;;;;;;;;;2.40;48.90;;;;;;5053085;28;19923;-70
2024/01/21 13:06:26;;;;;;;;;;;2.40;49.30;;;;;;5051411;28;19956;-70
2024/01/21 13:08:52;;;;;;;;;;;2.60;49.20;;;;;;5051168;28;20503;-70
2024/01/21 13:11:18;;;;;;;;;;;2.70;49.10;;;;;;5052088;28;19938;-70
2024/01/21 13:13:43;;;;;;;;;;;2.80;48.80;;;;;;5034729;28;20253;-70
2024/01/21 13:16:09;;;;;;;;;;;3.00;48.60;;;;;;5048154;28;20622;-70
2024/01/21 13:18:37;;;;;;;;;;;3.80;47.00;;;;;;5032599;28;19924;-70
2024/01/21 13:21:04;;;;;;;;;;;4.80;44.80;;;;;;5031751;28;20335;-70
2024/01/21 13:23:30;;;;;;;;;;;4.60;44.90;;;;;;5047616;28;19924;-70
2024/01/21 13:25:56;;;;;;;;;;;5.00;44.40;;;;;;5032196;28;20370;-70
2024/01/21 13:30:49;;;;;;;;;;;9.10;36.40;;;;;;5031818;28;20362;-70
2024/01/21 13:33:38;;;;;;;;;;;11.00;33.40;;;;;;5046904;28;19917;-70
2024/01/21 13:36:04;;;;;;;;;;;12.70;29.30;;;;;;5033144;28;19920;-70
2024/01/21 13:38:33;;;;;;;;;;;12.10;28.70;;;;;;5052151;28;19970;-70
2024/01/21 13:41:03;;;;;;;;;;;11.80;29.60;;;;;;5033631;28;20000;-70
2024/01/21 13:43:29;;;;;;;;;;;10.50;31.00;;;;;;5052127;28;19964;-70
2024/01/21 13:45:55;;;;;;;;;;;8.90;33.80;;;;;;5052308;28;19938;-70
2024/01/21 13:48:21;;;;;;;;;;;7.60;36.00;;;;;;5034573;28;19949;-70
2024/01/21 13:50:47;;;;;;;;;;;7.30;37.90;;;;;;5031171;28;19928;-70
2024/01/21 13:53:14;;;;;;;;;;;7.60;37.20;;;;;;5047126;28;19917;-71
2024/01/21 13:55:40;;;;;;;;;;;7.80;36.50;;;;;;5047284;28;20004;-70
2024/01/21 13:58:06;;;;;;;;;;;8.70;35.70;;;;;;5031925;28;20008;-70
2024/01/21 14:00:32;;;;;;;;;;;10.10;34.00;;;;;;5029255;28;19971;-70
2024/01/21 14:02:59;;;;;;;;;;;10.90;31.50;;;;;;5045866;28;19920;-70
2024/01/21 14:05:26;;;;;;;;;;;11.30;30.50;;;;;;5050325;28;19943;-70
2024/01/21 14:07:53;;;;;;;;;;;12.80;28.20;;;;;;5041595;28;19921;-70
2024/01/21 14:10:20;;;;;;;;;;;13.20;27.10;;;;;;5030959;28;19991;-70
2024/01/21 14:12:46;;;;;;;;;;;13.20;26.50;;;;;;5029788;28;19913;-70
2024/01/21 14:15:12;;;;;;;;;;;12.30;26.00;;;;;;5031379;28;19913;-70
2024/01/21 14:17:38;;;;;;;;;;;11.10;27.10;;;;;;5030486;28;19913;-70
2024/01/21 14:20:05;;;;;;;;;;;9.60;29.00;;;;;;5029659;28;19920;-70
2024/01/21 14:22:32;;;;;;;;;;;8.80;31.20;;;;;;5046732;28;19909;-71
2024/01/21 14:25:38;;;;;;;;;;;8.90;31.00;;;;;;5031226;28;19959;-70
2024/01/21 14:28:04;;;;;;;;;;;8.90;30.50;;;;;;5031786;28;20374;-70